Time;durP1;ratioP1;P1;durP2;ratioP2;P2;SDS_P1;SDS_P2;PMS_P1;PMS_P2;Temp;Humidity;BMP_temperature;BMP_pressure;BME280_temperature;BME280_humidity;BME280_pressure;Samples;Min_cycle;Max_cycle;Signal;HPM_P1;HPM_P2
2021/03/05 00:01:14;;;;;;;18.73;8.10;;;5.60;79.20;;;;;;5069484;28;20071;-77
2021/03/05 00:03:40;;;;;;;21.63;7.73;;;5.70;79.50;;;;;;5071035;28;20033;-76
2021/03/05 00:06:05;;;;;;;27.50;7.40;;;5.70;79.00;;;;;;5084659;28;20043;-76
2021/03/05 00:08:31;;;;;;;15.57;6.50;;;5.60;78.60;;;;;;5088993;28;20024;-78
2021/03/05 00:10:57;;;;;;;19.87;6.90;;;5.60;78.50;;;;;;5090393;28;20035;-76
2021/03/05 00:13:24;;;;;;;16.87;6.70;;;5.60;78.70;;;;;;5098410;28;20160;-75
2021/03/05 00:15:50;;;;;;;17.90;6.57;;;5.70;78.80;;;;;;5070329;28;20114;-75
2021/03/05 00:18:16;;;;;;;21.57;6.43;;;5.60;78.60;;;;;;5068698;28;20041;-76
2021/03/05 00:20:48;;;;;;;18.03;5.90;;;5.60;78.70;;;;;;5069552;28;20416;-75
2021/03/05 00:23:15;;;;;;;16.73;5.40;;;5.70;78.90;;;;;;5070166;28;20036;-76
2021/03/05 00:25:41;;;;;;;18.83;5.93;;;5.60;78.60;;;;;;5083776;28;20036;-76
2021/03/05 00:28:07;;;;;;;21.37;5.97;;;5.60;78.70;;;;;;5087838;28;20035;-76
2021/03/05 00:30:36;;;;;;;19.87;4.87;;;5.50;78.70;;;;;;5070757;28;20029;-77
2021/03/05 00:33:03;;;;;;;15.60;5.03;;;5.50;78.70;;;;;;5073961;28;20028;-76
2021/03/05 00:35:30;;;;;;;17.33;4.80;;;5.50;78.50;;;;;;5099996;28;20485;-76
2021/03/05 00:37:55;;;;;;;16.60;5.00;;;5.50;78.30;;;;;;5091026;28;20106;-76
2021/03/05 00:40:23;;;;;;;22.87;6.40;;;5.50;78.60;;;;;;5069358;28;20119;-77
2021/03/05 00:42:50;;;;;;;23.07;4.93;;;5.60;78.90;;;;;;5068437;28;20033;-77
2021/03/05 00:45:19;;;;;;;18.23;4.87;;;5.50;77.70;;;;;;5080937;28;20048;-77
2021/03/05 00:47:44;;;;;;;18.67;5.00;;;5.50;78.20;;;;;;5089805;28;20024;-76
2021/03/05 00:50:11;;;;;;;19.00;5.30;;;5.50;78.20;;;;;;5072635;28;20100;-76
2021/03/05 00:52:37;;;;;;;12.60;4.03;;;5.50;77.90;;;;;;5081526;28;20037;-76
2021/03/05 00:55:07;;;;;;;18.37;4.07;;;5.50;78.00;;;;;;5069957;28;20027;-75
2021/03/05 00:57:34;;;;;;;21.13;4.43;;;5.50;78.00;;;;;;5097366;28;20073;-77
2021/03/05 00:59:59;;;;;;;16.73;3.40;;;5.50;78.40;;;;;;5053007;28;20417;-76
2021/03/05 01:02:25;;;;;;;15.37;3.33;;;5.50;77.90;;;;;;5081941;28;20075;-76
2021/03/05 01:04:51;;;;;;;15.73;3.07;;;5.50;77.60;;;;;;5072503;28;20031;-77
2021/03/05 01:07:16;;;;;;;22.10;3.63;;;5.40;77.20;;;;;;5072216;28;20476;-77
2021/03/05 01:09:43;;;;;;;19.77;3.33;;;5.40;77.80;;;;;;5072480;28;20066;-77
2021/03/05 01:12:09;;;;;;;16.00;3.30;;;5.40;78.00;;;;;;5080227;28;20082;-77
2021/03/05 01:14:35;;;;;;;15.57;2.70;;;5.40;78.30;;;;;;5070442;28;20043;-78
2021/03/05 01:17:00;;;;;;;19.77;3.07;;;5.30;78.10;;;;;;5053531;28;20025;-76
2021/03/05 01:19:27;;;;;;;16.17;2.80;;;5.20;78.20;;;;;;5053255;28;20025;-77
2021/03/05 01:21:53;;;;;;;17.10;3.27;;;5.30;78.80;;;;;;5072546;28;20028;-77
2021/03/05 01:24:19;;;;;;;13.70;2.50;;;5.30;79.10;;;;;;5073172;28;20463;-76
2021/03/05 01:26:45;;;;;;;12.87;2.40;;;5.40;79.30;;;;;;5090298;28;20060;-77
2021/03/05 01:29:10;;;;;;;17.43;3.17;;;5.40;79.20;;;;;;5077754;28;20454;-76
2021/03/05 01:31:36;;;;;;;16.53;2.57;;;5.40;79.30;;;;;;5073443;28;20036;-77
2021/03/05 01:34:05;;;;;;;12.67;2.50;;;5.30;79.30;;;;;;5069221;28;20044;-77
2021/03/05 01:36:31;;;;;;;18.03;2.87;;;5.30;79.90;;;;;;5069239;28;20115;-76
2021/03/05 01:38:57;;;;;;;16.50;3.43;;;5.40;80.10;;;;;;5068897;28;20170;-77
2021/03/05 01:41:22;;;;;;;13.20;3.43;;;5.40;80.20;;;;;;5054441;28;20377;-76
2021/03/05 01:43:48;;;;;;;11.47;2.83;;;5.50;80.40;;;;;;5062638;28;20036;-77
2021/03/05 01:46:16;;;;;;;20.50;3.30;;;5.50;80.30;;;;;;5072692;28;20080;-76
2021/03/05 01:48:42;;;;;;;15.97;3.53;;;5.40;80.10;;;;;;5068545;28;20040;-78
2021/03/05 01:51:21;;;;;;;16.80;3.17;;;5.30;80.20;;;;;;5066640;28;20037;-77
2021/03/05 01:53:48;;;;;;;18.47;3.53;;;5.40;81.10;;;;;;5071980;28;20476;-76
2021/03/05 01:56:34;;;;;;;12.97;3.60;;;5.50;81.20;;;;;;5073196;28;20028;-77
2021/03/05 01:59:00;;;;;;;14.63;3.23;;;5.50;81.50;;;;;;5091736;28;20027;-77
2021/03/05 02:01:28;;;;;;;16.10;4.53;;;5.50;81.20;;;;;;5096856;28;20104;-76
2021/03/05 02:03:54;;;;;;;16.50;4.20;;;5.50;81.20;;;;;;5067548;28;20169;-76
2021/03/05 02:06:21;;;;;;;12.77;3.97;;;5.50;81.30;;;;;;5063568;28;20540;-75
2021/03/05 02:08:46;;;;;;;15.33;3.83;;;5.50;81.50;;;;;;5093757;28;20028;-75
2021/03/05 02:11:14;;;;;;;14.83;4.43;;;5.50;81.60;;;;;;5089421;28;20118;-76
2021/03/05 02:13:40;;;;;;;14.70;5.23;;;5.40;81.70;;;;;;5067459;28;20456;-78
2021/03/05 02:16:17;;;;;;;16.83;5.77;;;5.40;81.30;;;;;;5055287;28;20032;-75
2021/03/05 02:19:00;;;;;;;17.73;5.80;;;5.50;81.90;;;;;;5088548;28;20101;-77
2021/03/05 02:22:06;;;;;;;17.90;6.10;;;5.40;81.90;;;;;;5093654;28;20432;-75
2021/03/05 02:24:47;;;;;;;14.03;5.23;;;5.40;82.70;;;;;;5092240;28;20044;-77
2021/03/05 02:27:40;;;;;;;19.53;7.13;;;5.50;82.60;;;;;;5085091;28;20484;-76
2021/03/05 02:30:27;;;;;;;17.90;8.23;;;5.50;82.30;;;;;;5071108;28;20024;-77
2021/03/05 02:33:11;;;;;;;19.40;7.93;;;5.40;81.80;;;;;;5072049;28;20545;-77
2021/03/05 02:35:37;;;;;;;17.20;8.20;;;5.30;82.30;;;;;;5077865;28;20074;-76
2021/03/05 02:38:08;;;;;;;18.63;9.60;;;5.30;82.40;;;;;;5075902;28;20037;-77
2021/03/05 02:40:39;;;;;;;17.17;8.77;;;5.30;82.40;;;;;;5073940;28;20016;-77
2021/03/05 02:43:09;;;;;;;18.27;9.53;;;5.30;81.90;;;;;;5089161;28;20119;-76
2021/03/05 02:45:38;;;;;;;17.63;10.20;;;5.40;82.20;;;;;;5091717;28;20399;-76
2021/03/05 02:48:20;;;;;;;17.70;10.27;;;5.40;82.10;;;;;;5092954;28;20259;-77
2021/03/05 02:50:51;;;;;;;16.02;9.30;;;5.40;81.50;;;;;;5092838;28;20017;-78
2021/03/05 02:53:20;;;;;;;15.63;9.60;;;5.50;81.50;;;;;;5091379;28;20032;-78
2021/03/05 02:55:50;;;;;;;17.30;9.97;;;5.40;80.50;;;;;;5094153;28;20016;-79
2021/03/05 02:58:18;;;;;;;17.03;10.97;;;5.50;81.30;;;;;;5073482;28;20051;-77
2021/03/05 03:00:44;;;;;;;16.87;10.43;;;5.50;81.30;;;;;;5071498;28;20040;-78
2021/03/05 03:03:12;;;;;;;13.83;10.03;;;5.50;80.20;;;;;;5070678;28;20051;-78
2021/03/05 03:05:39;;;;;;;16.87;10.37;;;5.40;79.40;;;;;;5072301;28;20028;-77
2021/03/05 03:08:06;;;;;;;15.53;10.37;;;5.40;80.00;;;;;;5073898;28;20032;-77
2021/03/05 03:10:33;;;;;;;15.77;10.77;;;5.50;80.40;;;;;;5081915;28;20040;-77
2021/03/05 03:13:01;;;;;;;17.17;10.33;;;5.40;79.80;;;;;;5090033;28;20039;-77
2021/03/05 03:15:30;;;;;;;16.83;10.27;;;5.40;79.70;;;;;;5091900;28;20077;-77
2021/03/05 03:17:57;;;;;;;11.87;8.77;;;5.40;80.10;;;;;;5076494;28;20102;-77
2021/03/05 03:20:24;;;;;;;13.83;9.30;;;5.40;79.30;;;;;;5071601;28;20170;-77
2021/03/05 03:22:50;;;;;;;15.63;9.80;;;5.50;79.60;;;;;;5084764;28;20060;-76
2021/03/05 03:25:16;;;;;;;11.20;8.87;;;5.50;78.60;;;;;;5082075;28;20037;-75
2021/03/05 03:27:43;;;;;;;12.70;9.03;;;5.50;79.40;;;;;;5079698;28;20063;-76
2021/03/05 03:30:12;;;;;;;13.23;9.50;;;5.40;78.50;;;;;;5090950;28;20499;-75
2021/03/05 03:32:39;;;;;;;14.93;9.80;;;5.40;79.00;;;;;;5088837;28;20036;-75
2021/03/05 03:35:07;;;;;;;13.80;8.93;;;5.30;77.20;;;;;;5067321;28;20531;-75
2021/03/05 03:37:34;;;;;;;14.90;9.33;;;5.10;76.80;;;;;;5082060;28;20492;-75
2021/03/05 03:40:04;;;;;;;15.87;9.80;;;4.90;77.60;;;;;;5070361;28;20025;-76
2021/03/05 03:42:30;;;;;;;13.60;9.80;;;4.80;77.40;;;;;;5070432;28;20464;-77
2021/03/05 03:44:56;;;;;;;16.27;9.83;;;4.70;78.90;;;;;;5069722;28;20056;-77
2021/03/05 03:47:23;;;;;;;16.13;10.37;;;4.60;79.20;;;;;;5077793;28;20044;-77
2021/03/05 03:49:57;;;;;;;15.40;10.33;;;4.60;80.40;;;;;;5071311;28;20531;-79
2021/03/05 03:52:44;;;;;;;15.07;9.67;;;4.60;80.40;;;;;;5083159;28;20086;-76
2021/03/05 03:55:10;;;;;;;14.63;10.53;;;4.50;80.60;;;;;;5089810;28;20097;-76
2021/03/05 03:57:42;;;;;;;14.40;7.50;;;4.40;80.50;;;;;;5060804;28;20040;-78
2021/03/05 04:00:10;;;;;;;10.87;6.37;;;4.20;79.30;;;;;;5096987;28;20016;-77
2021/03/05 04:02:37;;;;;;;13.20;6.93;;;4.00;79.50;;;;;;5091603;28;20107;-77
2021/03/05 04:05:08;;;;;;;11.43;7.30;;;3.90;79.70;;;;;;5089947;28;20514;-77
2021/03/05 04:07:34;;;;;;;14.43;8.47;;;3.80;80.40;;;;;;5078363;28;20472;-77
2021/03/05 04:10:03;;;;;;;13.60;8.93;;;3.80;80.50;;;;;;5075511;28;20024;-77
2021/03/05 04:12:30;;;;;;;13.77;8.43;;;3.70;81.00;;;;;;5088987;28;20085;-77
2021/03/05 04:14:56;;;;;;;16.17;9.40;;;3.60;81.20;;;;;;5071203;28;20538;-77
2021/03/05 04:17:22;;;;;;;13.93;8.50;;;3.40;81.30;;;;;;5081247;28;20425;-75
2021/03/05 04:19:48;;;;;;;14.00;8.57;;;3.30;82.50;;;;;;5068729;28;20571;-75
2021/03/05 04:22:16;;;;;;;15.07;8.73;;;3.40;83.50;;;;;;5084009;28;20110;-76
2021/03/05 04:24:42;;;;;;;14.17;8.10;;;3.50;83.50;;;;;;5075214;28;20457;-75
2021/03/05 04:27:12;;;;;;;12.33;8.57;;;3.40;82.70;;;;;;5088509;28;20111;-76
2021/03/05 04:29:37;;;;;;;13.73;9.17;;;3.30;82.60;;;;;;5090437;28;20051;-76
2021/03/05 04:32:04;;;;;;;15.23;9.97;;;3.20;83.00;;;;;;5080319;28;20464;-76
2021/03/05 04:34:30;;;;;;;13.17;9.87;;;3.10;82.40;;;;;;5087183;28;20094;-76
2021/03/05 04:36:56;;;;;;;16.57;10.73;;;3.00;82.80;;;;;;5068536;28;20433;-77
2021/03/05 04:39:22;;;;;;;14.00;8.77;;;3.00;83.20;;;;;;5067651;28;20059;-76
2021/03/05 04:41:48;;;;;;;12.17;7.93;;;2.90;83.80;;;;;;5070181;28;20392;-76
2021/03/05 04:44:14;;;;;;;11.07;7.40;;;2.90;83.70;;;;;;5072967;28;20351;-76
2021/03/05 04:46:40;;;;;;;11.33;7.87;;;2.90;84.20;;;;;;5069097;28;20024;-76
2021/03/05 04:49:05;;;;;;;14.33;7.73;;;2.90;84.40;;;;;;5064322;28;20036;-77
2021/03/05 04:51:31;;;;;;;12.53;8.20;;;2.80;84.20;;;;;;5070905;28;20040;-77
2021/03/05 04:53:57;;;;;;;15.87;8.83;;;2.90;84.90;;;;;;5043313;28;20113;-77
2021/03/05 04:56:23;;;;;;;13.17;8.00;;;3.00;84.90;;;;;;5077590;28;20078;-76
2021/03/05 04:58:49;;;;;;;13.80;7.63;;;2.90;84.60;;;;;;5089103;28;20520;-76
2021/03/05 05:01:14;;;;;;;12.10;8.00;;;2.70;84.40;;;;;;5068391;28;20029;-75
2021/03/05 05:03:40;;;;;;;15.03;8.63;;;2.60;84.40;;;;;;5069712;28;20035;-76
2021/03/05 05:06:06;;;;;;;13.03;8.33;;;2.60;84.80;;;;;;5069841;28;20083;-77
2021/03/05 05:08:32;;;;;;;13.77;8.07;;;2.50;85.00;;;;;;5053576;28;20024;-76
2021/03/05 05:10:58;;;;;;;11.87;7.47;;;2.60;85.40;;;;;;5054753;28;20036;-77
2021/03/05 05:13:23;;;;;;;11.63;7.53;;;2.50;84.60;;;;;;5082298;28;20121;-75
2021/03/05 05:15:49;;;;;;;11.97;8.20;;;2.50;85.20;;;;;;5054317;28;20083;-75
2021/03/05 05:18:15;;;;;;;12.30;7.90;;;2.60;85.40;;;;;;5084407;28;20038;-75
2021/03/05 05:20:40;;;;;;;10.80;6.97;;;2.50;84.70;;;;;;5036186;28;20473;-76
2021/03/05 05:23:06;;;;;;;12.87;7.50;;;2.30;83.90;;;;;;5086820;28;20044;-76
2021/03/05 05:25:32;;;;;;;13.23;7.37;;;2.30;84.50;;;;;;5091111;28;20395;-76
2021/03/05 05:27:58;;;;;;;14.97;8.07;;;2.30;85.00;;;;;;5095530;28;20039;-77
2021/03/05 05:30:24;;;;;;;10.27;7.13;;;2.30;85.10;;;;;;5093271;28;20063;-75
2021/03/05 05:32:49;;;;;;;10.67;7.10;;;2.20;85.00;;;;;;5078883;28;20067;-75
2021/03/05 05:35:15;;;;;;;11.30;6.97;;;2.20;85.10;;;;;;5072173;28;20060;-75
2021/03/05 05:37:41;;;;;;;13.23;8.27;;;2.20;85.10;;;;;;5080879;28;20067;-75
2021/03/05 05:40:07;;;;;;;14.83;7.60;;;2.10;84.70;;;;;;5089418;28;20388;-76
2021/03/05 05:42:33;;;;;;;13.77;8.37;;;2.10;85.10;;;;;;5092529;28;20480;-76
2021/03/05 05:44:58;;;;;;;17.23;8.77;;;2.10;84.70;;;;;;5094629;28;20040;-77
2021/03/05 05:47:24;;;;;;;12.60;8.47;;;2.00;84.40;;;;;;5060839;28;20039;-76
2021/03/05 05:49:53;;;;;;;12.57;7.83;;;2.00;84.00;;;;;;5094740;28;20372;-76
2021/03/05 05:52:24;;;;;;;9.90;7.00;;;1.90;84.30;;;;;;5091541;28;20093;-76
2021/03/05 05:54:53;;;;;;;14.13;8.00;;;1.90;84.70;;;;;;5074028;28;20166;-76
2021/03/05 05:57:19;;;;;;;13.30;8.57;;;1.80;84.20;;;;;;5085977;28;20538;-75
2021/03/05 05:59:45;;;;;;;13.03;7.87;;;1.80;84.70;;;;;;5093177;28;20036;-76
2021/03/05 06:02:12;;;;;;;11.30;7.23;;;1.70;84.50;;;;;;5074160;28;20028;-75
2021/03/05 06:04:38;;;;;;;12.10;7.20;;;1.60;84.00;;;;;;5075894;28;20038;-75
2021/03/05 06:07:04;;;;;;;10.23;6.20;;;1.50;83.80;;;;;;5067115;28;20043;-79
2021/03/05 06:09:32;;;;;;;10.70;7.27;;;1.50;84.10;;;;;;5056319;28;20048;-76
2021/03/05 06:11:58;;;;;;;12.07;7.60;;;1.50;84.50;;;;;;5075434;28;20028;-76
2021/03/05 06:14:24;;;;;;;11.30;7.20;;;1.60;85.00;;;;;;5088015;28;20032;-76
2021/03/05 06:16:56;;;;;;;11.10;6.47;;;1.60;84.70;;;;;;5097465;28;20030;-75
2021/03/05 06:19:24;;;;;;;11.77;6.00;;;1.70;85.40;;;;;;5071502;28;20516;-75
2021/03/05 06:21:50;;;;;;;7.87;4.90;;;1.80;85.00;;;;;;5072020;28;20036;-75
2021/03/05 06:24:16;;;;;;;11.27;5.30;;;1.90;85.00;;;;;;5071924;28;20048;-75
2021/03/05 06:26:49;;;;;;;8.03;4.70;;;1.90;84.90;;;;;;5080309;28;20160;-75
2021/03/05 06:29:16;;;;;;;13.30;5.15;;;1.80;84.10;;;;;;5071692;28;20024;-75
2021/03/05 06:32:00;;;;;;;9.83;5.10;;;1.90;84.70;;;;;;5071115;28;20116;-75
2021/03/05 06:34:28;;;;;;;10.47;5.13;;;2.30;84.70;;;;;;5072624;28;20123;-75
2021/03/05 06:37:00;;;;;;;7.70;4.77;;;2.90;84.30;;;;;;5064633;28;20039;-74
2021/03/05 06:39:27;;;;;;;5.95;3.97;;;3.60;82.80;;;;;;5080233;28;20107;-75
2021/03/05 06:42:13;;;;;;;9.17;4.77;;;4.30;81.60;;;;;;5077664;28;20069;-74
2021/03/05 06:44:42;;;;;;;6.67;4.63;;;5.00;77.60;;;;;;5089384;28;20052;-74
2021/03/05 06:47:21;;;;;;;6.00;4.10;;;5.50;75.90;;;;;;5100419;28;20024;-78
2021/03/05 06:49:49;;;;;;;5.37;3.80;;;5.90;72.80;;;;;;5073372;28;20090;-73
2021/03/05 06:52:16;;;;;;;7.27;3.83;;;6.20;72.70;;;;;;5068341;28;20055;-74
2021/03/05 06:54:42;;;;;;;6.93;3.33;;;6.60;67.80;;;;;;5076716;28;20485;-75
2021/03/05 06:57:11;;;;;;;5.30;3.20;;;7.00;67.90;;;;;;5091084;28;20032;-78
2021/03/05 06:59:45;;;;;;;5.67;3.50;;;7.30;67.40;;;;;;5092511;28;20107;-75
2021/03/05 07:02:14;;;;;;;6.03;3.60;;;7.60;65.20;;;;;;5090172;28;20038;-75
2021/03/05 07:04:51;;;;;;;6.20;3.30;;;8.00;64.30;;;;;;5092148;28;20074;-74
2021/03/05 07:07:20;;;;;;;5.87;3.80;;;8.30;62.90;;;;;;5071917;28;20032;-75
2021/03/05 07:09:54;;;;;;;5.83;3.67;;;8.50;59.40;;;;;;5072983;28;20028;-74
2021/03/05 07:12:22;;;;;;;4.87;3.47;;;8.80;60.70;;;;;;5063435;28;20043;-73
2021/03/05 07:15:10;;;;;;;4.50;2.90;;;9.20;59.10;;;;;;5071169;28;20073;-74
2021/03/05 07:17:36;;;;;;;6.63;2.10;;;9.20;55.10;;;;;;5070622;28;20059;-74
2021/03/05 07:20:06;;;;;;;4.63;2.27;;;9.00;53.50;;;;;;5071476;28;20024;-74
2021/03/05 07:22:32;;;;;;;4.07;2.17;;;8.90;57.20;;;;;;5053778;28;20047;-74
2021/03/05 07:25:01;;;;;;;5.27;2.37;;;9.20;54.20;;;;;;5071118;28;20037;-74
2021/03/05 07:27:34;;;;;;;4.50;2.07;;;9.20;53.90;;;;;;5082265;28;20034;-74
2021/03/05 07:30:02;;;;;;;4.43;2.20;;;9.30;54.30;;;;;;5092420;28;20380;-75
2021/03/05 07:32:35;;;;;;;3.90;1.80;;;9.30;52.10;;;;;;5088918;28;20450;-75
2021/03/05 07:35:07;;;;;;;3.38;2.03;;;9.00;53.40;;;;;;5077359;28;20042;-74
2021/03/05 07:37:49;;;;;;;3.40;2.22;;;9.10;54.50;;;;;;5080829;28;20044;-78
2021/03/05 07:40:16;;;;;;;3.93;2.20;;;9.20;53.20;;;;;;5071543;28;20047;-74
2021/03/05 07:42:42;;;;;;;4.93;2.30;;;9.40;53.20;;;;;;5069761;28;20036;-77
2021/03/05 07:45:09;;;;;;;4.20;1.53;;;8.90;51.10;;;;;;5079083;28;20138;-74
2021/03/05 07:47:38;;;;;;;4.70;1.73;;;8.40;52.60;;;;;;5066766;28;20032;-78
2021/03/05 07:50:07;;;;;;;5.27;2.27;;;8.20;54.20;;;;;;5066614;28;20077;-79
2021/03/05 07:52:33;;;;;;;2.63;1.80;;;8.90;56.40;;;;;;5078711;28;20028;-80
2021/03/05 07:54:59;;;;;;;5.90;2.20;;;8.90;51.80;;;;;;5059687;28;20028;-76
2021/03/05 07:57:25;;;;;;;4.43;2.80;;;9.20;52.10;;;;;;5057118;28;20032;-76
2021/03/05 07:59:52;;;;;;;4.53;2.07;;;9.30;53.20;;;;;;5081889;28;20028;-77
2021/03/05 08:02:24;;;;;;;3.90;2.33;;;9.70;50.70;;;;;;5072356;28;20032;-75
2021/03/05 08:04:49;;;;;;;4.57;2.70;;;9.60;50.90;;;;;;5072062;28;20035;-76
2021/03/05 08:07:22;;;;;;;3.97;1.77;;;9.60;50.80;;;;;;5069244;28;20024;-79
2021/03/05 08:09:47;;;;;;;6.78;3.47;;;9.50;49.80;;;;;;5068516;28;20040;-77
2021/03/05 08:12:28;;;;;;;4.97;1.97;;;9.40;50.90;;;;;;5083887;28;20028;-80
2021/03/05 08:15:09;;;;;;;5.03;2.03;;;9.40;49.00;;;;;;5065480;28;20035;-77
2021/03/05 08:17:40;;;;;;;8.23;3.57;;;8.70;49.40;;;;;;5074332;28;20028;-76
2021/03/05 08:20:26;;;;;;;4.17;1.90;;;8.70;51.70;;;;;;5069903;28;20054;-77
2021/03/05 08:22:58;;;;;;;4.20;2.70;;;9.20;50.30;;;;;;5071242;28;20472;-76
2021/03/05 08:25:28;;;;;;;6.53;2.77;;;9.20;49.90;;;;;;5073400;28;20028;-77
2021/03/05 08:27:55;;;;;;;7.20;4.73;;;9.30;50.00;;;;;;5071838;28;20021;-73
2021/03/05 08:30:29;;;;;;;7.40;4.03;;;9.30;50.80;;;;;;5064535;28;20024;-76
2021/03/05 08:32:58;;;;;;;8.60;4.93;;;9.50;50.50;;;;;;5069890;28;20035;-78
2021/03/05 08:35:34;;;;;;;4.70;3.20;;;10.00;50.70;;;;;;5064824;28;20039;-77
2021/03/05 08:38:06;;;;;;;9.63;6.93;;;10.40;47.10;;;;;;5068410;28;20032;-76
2021/03/05 08:40:36;;;;;;;14.90;9.33;;;10.50;49.50;;;;;;5069174;28;20040;-77
2021/03/05 08:43:11;;;;;;;8.77;4.77;;;10.50;46.90;;;;;;5068609;28;20254;-75
2021/03/05 08:45:49;;;;;;;6.80;4.33;;;10.80;45.30;;;;;;5072041;28;20072;-75
2021/03/05 08:48:42;;;;;;;4.13;1.53;;;10.90;46.20;;;;;;5068518;28;20028;-75
2021/03/05 08:51:16;;;;;;;6.50;3.28;;;10.80;44.40;;;;;;5068169;28;20042;-75
2021/03/05 08:53:55;;;;;;;6.33;2.93;;;10.20;44.80;;;;;;5069310;28;20040;-77
2021/03/05 08:56:28;;;;;;;10.53;6.70;;;9.90;45.20;;;;;;5065871;28;20063;-78
2021/03/05 08:58:59;;;;;;;13.33;6.87;;;9.20;48.20;;;;;;5063725;28;20035;-74
2021/03/05 09:01:26;;;;;;;6.83;2.73;;;9.60;48.30;;;;;;5074583;28;21796;-75
2021/03/05 09:03:52;;;;;;;10.20;5.70;;;9.50;46.30;;;;;;5081653;28;20147;-76
2021/03/05 09:06:17;;;;;;;6.03;3.00;;;9.60;48.30;;;;;;5084659;28;20072;-76
2021/03/05 09:08:43;;;;;;;9.63;5.77;;;9.60;46.80;;;;;;5073521;28;20048;-74
2021/03/05 09:11:12;;;;;;;15.37;6.77;;;9.40;46.80;;;;;;5049736;28;20614;-75
2021/03/05 09:13:38;;;;;;;18.13;10.10;;;9.70;48.90;;;;;;5080876;28;20144;-73
2021/03/05 09:16:05;;;;;;;7.73;4.23;;;9.80;48.30;;;;;;5114447;28;20471;-74
2021/03/05 09:18:34;;;;;;;5.67;2.63;;;9.60;48.60;;;;;;5076239;28;20040;-73
2021/03/05 09:21:05;;;;;;;5.97;1.20;;;9.80;48.30;;;;;;5074571;28;20054;-74
2021/03/05 09:23:41;;;;;;;4.43;1.47;;;9.70;46.10;;;;;;5085486;28;20032;-74
2021/03/05 09:26:16;;;;;;;10.63;4.53;;;9.70;46.80;;;;;;5095844;28;20146;-75
2021/03/05 09:28:52;;;;;;;5.27;2.33;;;9.50;48.40;;;;;;5079584;28;20165;-76
2021/03/05 09:31:24;;;;;;;13.93;7.67;;;9.70;48.00;;;;;;5092898;28;20036;-73
2021/03/05 09:33:50;;;;;;;11.33;4.73;;;9.80;51.00;;;;;;5087100;28;20039;-73
2021/03/05 09:36:21;;;;;;;7.23;2.70;;;9.90;46.90;;;;;;5073922;28;20384;-74
2021/03/05 09:38:53;;;;;;;6.20;3.27;;;9.80;47.20;;;;;;5089360;28;20111;-74
2021/03/05 09:41:21;;;;;;;15.15;8.35;;;10.60;49.10;;;;;;5072636;28;20109;-75
2021/03/05 09:44:06;;;;;;;7.63;4.13;;;10.60;48.10;;;;;;5076471;28;20032;-74
2021/03/05 09:46:33;;;;;;;5.60;1.50;;;11.10;46.80;;;;;;5072018;28;20037;-75
2021/03/05 09:49:18;;;;;;;8.80;3.60;;;10.90;44.10;;;;;;5081333;28;20020;-75
2021/03/05 09:51:44;;;;;;;4.33;1.40;;;10.80;46.30;;;;;;5081050;28;20333;-76
2021/03/05 09:54:10;;;;;;;5.57;1.60;;;10.70;45.10;;;;;;5074043;28;20078;-76
2021/03/05 09:56:48;;;;;;;12.43;6.53;;;10.30;45.70;;;;;;5073028;28;20255;-75
2021/03/05 09:59:13;;;;;;;8.13;2.73;;;10.70;50.40;;;;;;5071473;28;20204;-76
2021/03/05 10:01:44;;;;;;;10.07;2.80;;;11.30;46.30;;;;;;5076478;28;20488;-76
2021/03/05 10:04:11;;;;;;;8.47;2.07;;;11.40;46.20;;;;;;5093285;28;20032;-75
2021/03/05 10:06:37;;;;;;;7.10;2.40;;;11.10;44.00;;;;;;5074267;28;20077;-75
2021/03/05 10:09:05;;;;;;;3.83;0.83;;;11.30;45.60;;;;;;5093470;28;20031;-75
2021/03/05 10:11:35;;;;;;;6.37;1.80;;;11.30;43.90;;;;;;5074656;28;20028;-77
2021/03/05 10:14:02;;;;;;;3.73;1.83;;;11.20;44.90;;;;;;5091185;28;20036;-76
2021/03/05 10:16:37;;;;;;;13.97;5.80;;;11.30;44.90;;;;;;5074144;28;20111;-77
2021/03/05 10:19:06;;;;;;;3.83;1.20;;;11.10;44.00;;;;;;5094111;28;20135;-75
2021/03/05 10:21:33;;;;;;;2.43;0.97;;;10.80;44.20;;;;;;5087859;28;20062;-76
2021/03/05 10:24:06;;;;;;;5.87;2.83;;;10.50;43.80;;;;;;5092996;28;20070;-77
2021/03/05 10:26:32;;;;;;;6.23;2.17;;;10.40;45.10;;;;;;5072823;28;20044;-76
2021/03/05 10:29:02;;;;;;;5.67;1.40;;;10.40;44.00;;;;;;5078656;28;20028;-75
2021/03/05 10:31:46;;;;;;;5.50;1.27;;;10.40;44.30;;;;;;5091097;28;20024;-77
2021/03/05 10:34:23;;;;;;;4.37;1.47;;;11.00;45.20;;;;;;5091676;28;20361;-75
2021/03/05 10:36:50;;;;;;;4.93;2.17;;;11.20;42.80;;;;;;5091656;28;20114;-75
2021/03/05 10:39:16;;;;;;;6.30;1.60;;;11.60;44.80;;;;;;5078759;28;20472;-76
2021/03/05 10:41:58;;;;;;;2.97;1.30;;;12.00;40.60;;;;;;5047851;28;20074;-76
2021/03/05 10:44:25;;;;;;;4.67;2.63;;;11.00;40.30;;;;;;5081175;28;20909;-76
2021/03/05 10:46:50;;;;;;;4.60;2.17;;;11.10;43.30;;;;;;5069293;28;20024;-77
2021/03/05 10:49:16;;;;;;;2.93;1.47;;;12.00;42.90;;;;;;5094001;28;20092;-77
2021/03/05 10:51:42;;;;;;;3.23;0.80;;;12.00;41.00;;;;;;5088541;28;20024;-76
2021/03/05 10:54:08;;;;;;;6.00;2.93;;;11.80;38.30;;;;;;5072044;28;20036;-76
2021/03/05 10:56:34;;;;;;;5.15;2.80;;;11.60;42.20;;;;;;5083811;28;20475;-77
2021/03/05 10:59:00;;;;;;;5.97;1.25;;;12.10;42.80;;;;;;5084916;28;20027;-77
2021/03/05 11:01:26;;;;;;;4.63;1.25;;;12.60;41.60;;;;;;5082407;28;20036;-76
2021/03/05 11:03:51;;;;;;;3.63;1.48;;;13.10;39.90;;;;;;5091554;28;20054;-76
2021/03/05 11:06:18;;;;;;;5.07;2.30;;;12.80;40.00;;;;;;5092261;28;20042;-76
2021/03/05 11:08:44;;;;;;;3.20;0.77;;;12.70;39.10;;;;;;5069670;28;20090;-77
2021/03/05 11:11:10;;;;;;;2.70;1.10;;;11.60;35.50;;;;;;5072983;28;20074;-77
2021/03/05 11:13:35;;;;;;;3.23;1.03;;;11.10;39.70;;;;;;5089082;28;20436;-77
2021/03/05 11:16:01;;;;;;;5.40;2.20;;;10.60;39.80;;;;;;5087170;28;20430;-76
2021/03/05 11:18:27;;;;;;;2.93;1.20;;;10.20;44.40;;;;;;5076770;28;20020;-77
2021/03/05 11:20:52;;;;;;;2.43;1.30;;;10.60;42.80;;;;;;5073896;28;20067;-77
2021/03/05 11:23:18;;;;;;;4.13;0.97;;;10.60;41.10;;;;;;5072810;28;20131;-77
2021/03/05 11:25:44;;;;;;;2.77;1.07;;;11.10;40.70;;;;;;5082441;28;20460;-76
2021/03/05 11:28:09;;;;;;;3.57;1.60;;;10.80;41.60;;;;;;5071198;28;20028;-77
2021/03/05 11:30:36;;;;;;;2.13;0.90;;;10.80;43.30;;;;;;5094096;28;20107;-78
2021/03/05 11:33:01;;;;;;;2.33;0.60;;;11.50;42.30;;;;;;5089551;28;20111;-76
2021/03/05 11:35:27;;;;;;;3.43;0.80;;;11.00;39.60;;;;;;5091653;28;20103;-77
2021/03/05 11:37:52;;;;;;;4.60;1.07;;;10.90;42.50;;;;;;5091702;28;20629;-78
2021/03/05 11:40:18;;;;;;;2.00;0.60;;;11.20;41.80;;;;;;5073264;28;20028;-78
2021/03/05 11:42:44;;;;;;;3.63;0.67;;;10.80;38.80;;;;;;5079508;28;20046;-78
2021/03/05 11:45:10;;;;;;;2.73;0.70;;;10.10;40.00;;;;;;5074954;28;20056;-78
2021/03/05 11:47:36;;;;;;;3.23;0.90;;;9.70;40.80;;;;;;5085634;28;20070;-77
2021/03/05 11:50:03;;;;;;;2.43;1.20;;;9.70;42.30;;;;;;5057246;28;20513;-77
2021/03/05 11:52:28;;;;;;;3.37;0.60;;;9.90;44.10;;;;;;5078395;28;20035;-78
2021/03/05 11:54:56;;;;;;;2.20;0.80;;;9.80;42.10;;;;;;5048027;28;20201;-79
2021/03/05 11:57:22;;;;;;;2.87;0.63;;;9.40;41.70;;;;;;5067758;28;20051;-78
2021/03/05 11:59:47;;;;;;;3.57;1.00;;;9.30;40.70;;;;;;5068223;28;20060;-79
2021/03/05 12:02:14;;;;;;;2.37;0.70;;;9.60;43.20;;;;;;5067432;28;20115;-78
2021/03/05 12:04:40;;;;;;;2.33;0.60;;;9.80;39.50;;;;;;5060701;28;20045;-76
2021/03/05 12:07:06;;;;;;;2.53;0.63;;;9.60;38.30;;;;;;5069110;28;20411;-79
2021/03/05 12:09:32;;;;;;;3.90;1.40;;;9.00;39.60;;;;;;5068433;28;20055;-78
2021/03/05 12:11:59;;;;;;;4.20;1.40;;;9.10;43.10;;;;;;5076748;28;20739;-79
2021/03/05 12:14:25;;;;;;;2.77;0.60;;;9.40;43.50;;;;;;5069147;28;20032;-78
2021/03/05 12:16:51;;;;;;;3.87;0.97;;;9.70;40.70;;;;;;5035928;28;20082;-78
2021/03/05 12:19:17;;;;;;;2.10;0.80;;;9.80;40.80;;;;;;5053134;28;20045;-78
2021/03/05 12:21:49;;;;;;;1.80;0.63;;;9.60;39.90;;;;;;5036411;28;20037;-78
2021/03/05 12:24:16;;;;;;;;;;;9.10;40.30;;;;;;5056408;28;20701;-79
2021/03/05 12:26:42;;;;;;;3.17;0.60;;;9.30;41.10;;;;;;5067734;28;20009;-79
2021/03/05 12:29:08;;;;;;;1.57;0.53;;;9.30;40.50;;;;;;5050673;28;20108;-77
2021/03/05 12:31:34;;;;;;;2.43;0.73;;;9.00;41.50;;;;;;5078902;28;20096;-78
2021/03/05 12:34:01;;;;;;;3.07;0.70;;;8.60;42.10;;;;;;5087928;28;20032;-78
2021/03/05 12:36:28;;;;;;;1.50;0.50;;;8.40;42.40;;;;;;5074178;28;20117;-77
2021/03/05 12:38:53;;;;;;;3.27;0.50;;;8.70;41.60;;;;;;5044755;28;20031;-79
2021/03/05 12:41:19;;;;;;;1.60;0.50;;;8.60;41.90;;;;;;5067910;28;20485;-78
2021/03/05 12:43:45;;;;;;;2.50;0.97;;;8.60;41.30;;;;;;5060012;28;20047;-77
2021/03/05 12:46:11;;;;;;;2.23;0.90;;;8.40;42.10;;;;;;5072872;28;20071;-78
2021/03/05 12:48:37;;;;;;;1.60;0.80;;;8.60;44.40;;;;;;5068431;28;20024;-76
2021/03/05 12:51:03;;;;;;;2.10;0.60;;;8.70;42.00;;;;;;5052796;28;20484;-76
2021/03/05 12:53:29;;;;;;;3.37;0.60;;;8.70;42.30;;;;;;5078492;28;20425;-76
2021/03/05 12:55:54;;;;;;;1.60;0.50;;;8.60;42.40;;;;;;5106306;28;20106;-76
2021/03/05 12:58:20;;;;;;;2.53;0.90;;;8.50;42.10;;;;;;5094247;28;20110;-77